createdAt,value
2019-05-09T00:00:23.807Z,1.83
2019-05-09T00:05:17.125Z,1.83
2019-05-09T00:10:10.461Z,1.73
2019-05-09T00:15:04.633Z,1.83
2019-05-09T00:19:58.964Z,1.87
2019-05-09T00:24:53.951Z,1.70
2019-05-09T00:29:46.744Z,1.83
2019-05-09T00:34:54.463Z,1.50
2019-05-09T00:39:47.805Z,1.77
2019-05-09T00:44:43.143Z,1.70
2019-05-09T00:49:34.757Z,1.83
2019-05-09T00:54:28.304Z,1.67
2019-05-09T00:59:23.935Z,1.67
2019-05-09T01:04:14.980Z,1.70
2019-05-09T01:09:08.479Z,1.80
2019-05-09T01:14:03.625Z,2.27
2019-05-09T01:18:55.157Z,1.77
2019-05-09T01:23:48.526Z,2.13
2019-05-09T01:28:44.228Z,2.10
2019-05-09T01:33:43.800Z,2.07
2019-05-09T01:38:35.166Z,1.87
2019-05-09T01:43:28.584Z,2.10
2019-05-09T01:48:23.421Z,2.60
2019-05-09T01:53:17.035Z,2.70
2019-05-09T01:58:10.373Z,2.43
2019-05-09T02:03:03.941Z,2.17
2019-05-09T02:07:57.268Z,2.90
2019-05-09T02:12:50.602Z,2.60
2019-05-09T02:18:05.476Z,3.10
2019-05-09T02:22:58.950Z,2.93
2019-05-09T02:27:52.295Z,2.67
2019-05-09T02:32:45.644Z,2.70
2019-05-09T02:37:39.337Z,3.10
2019-05-09T02:42:33.041Z,2.93
2019-05-09T02:47:29.009Z,3.10
2019-05-09T02:52:20.077Z,2.73
2019-05-09T02:57:13.167Z,2.97
2019-05-09T03:02:21.828Z,2.50
2019-05-09T03:07:18.652Z,3.20
2019-05-09T03:12:22.594Z,2.63
2019-05-09T03:17:01.891Z,2.70
2019-05-09T03:21:58.755Z,3.03
2019-05-09T03:26:55.672Z,2.57
2019-05-09T03:31:50.308Z,2.80
2019-05-09T03:36:42.454Z,3.20
2019-05-09T03:41:35.797Z,4.07
2019-05-09T03:46:34.498Z,4.00
2019-05-09T03:51:27.835Z,4.90
2019-05-09T03:56:23.520Z,4.43
2019-05-09T04:01:17.595Z,4.40
2019-05-09T04:06:10.632Z,4.07
2019-05-09T04:11:04.169Z,4.00
2019-05-09T04:15:58.291Z,4.27
2019-05-09T04:20:51.698Z,3.43
2019-05-09T04:25:52.928Z,3.80
2019-05-09T04:30:47.785Z,4.73
2019-05-09T04:35:39.756Z,3.93
2019-05-09T04:40:37.808Z,3.47
2019-05-09T04:45:48.855Z,3.67
2019-05-09T04:50:43.902Z,3.87
2019-05-09T04:55:37.676Z,3.67
2019-05-09T05:00:49.935Z,3.60
2019-05-09T05:05:43.289Z,3.07
2019-05-09T05:10:37.378Z,3.10
2019-05-09T05:15:30.765Z,3.10
2019-05-09T05:20:25.071Z,2.67
2019-05-09T05:25:18.432Z,2.50
2019-05-09T05:30:11.881Z,2.70
2019-05-09T05:35:30.916Z,2.80
2019-05-09T05:40:24.410Z,3.23
2019-05-09T05:45:18.242Z,2.43
2019-05-09T05:50:11.288Z,2.40
2019-05-09T05:55:04.763Z,2.00
2019-05-09T05:59:58.643Z,2.73
2019-05-09T06:04:51.423Z,1.90
2019-05-09T06:09:44.718Z,2.23
2019-05-09T06:14:38.101Z,2.30
2019-05-09T06:19:31.366Z,2.10
2019-05-09T06:24:24.805Z,2.07
2019-05-09T06:29:18.125Z,2.70
2019-05-09T06:34:11.559Z,2.43
2019-05-09T06:39:08.288Z,1.97
2019-05-09T06:44:16.326Z,2.20
2019-05-09T06:49:21.456Z,2.50
2019-05-09T06:54:01.367Z,2.27
2019-05-09T06:58:54.654Z,2.30
2019-05-09T07:03:49.415Z,2.20
2019-05-09T07:08:49.244Z,2.43
2019-05-09T07:13:42.551Z,2.57
2019-05-09T07:18:38.149Z,2.50
2019-05-09T07:23:29.296Z,2.37
2019-05-09T07:28:22.595Z,2.20
2019-05-09T07:33:27.843Z,2.80
2019-05-09T07:38:28.972Z,2.30
2019-05-09T07:43:22.512Z,2.33
2019-05-09T07:48:17.995Z,2.70
2019-05-09T07:53:09.263Z,2.20
2019-05-09T07:58:02.594Z,2.00
2019-05-09T08:02:58.042Z,2.63
2019-05-09T08:07:49.334Z,2.90
2019-05-09T08:12:42.775Z,2.30
2019-05-09T08:17:38.160Z,2.10
2019-05-09T08:22:32.164Z,2.30
2019-05-09T08:27:22.960Z,2.50
2019-05-09T08:32:18.115Z,2.23
2019-05-09T08:37:12.480Z,1.90
2019-05-09T08:42:03.660Z,2.30
2019-05-09T08:46:57.466Z,2.47
2019-05-09T08:52:12.707Z,2.17
2019-05-09T08:56:58.285Z,2.30
2019-05-09T09:02:11.160Z,2.20
2019-05-09T09:06:45.301Z,2.47
2019-05-09T09:11:39.049Z,2.17
2019-05-09T09:16:32.414Z,2.53
2019-05-09T09:21:28.418Z,2.30
2019-05-09T09:26:19.376Z,1.87
2019-05-09T09:31:13.118Z,2.80
2019-05-09T09:36:08.765Z,2.73
2019-05-09T09:40:59.794Z,3.10
2019-05-09T09:46:10.109Z,2.80
2019-05-09T09:50:51.220Z,2.93
2019-05-09T09:55:40.004Z,2.90
2019-05-09T10:00:40.158Z,2.40
2019-05-09T10:05:33.450Z,3.30
2019-05-09T10:10:45.063Z,3.27
2019-05-09T10:15:43.805Z,2.77
2019-05-09T10:20:44.045Z,2.83
2019-05-09T10:25:38.217Z,2.73
2019-05-09T10:30:31.149Z,3.10
2019-05-09T10:35:24.450Z,2.97
2019-05-09T10:40:21.167Z,2.90
2019-05-09T10:45:42.402Z,3.53
2019-05-09T10:50:43.165Z,3.00
2019-05-09T10:55:29.349Z,2.90
2019-05-09T11:00:22.746Z,2.73
2019-05-09T11:05:18.317Z,2.80
2019-05-09T11:10:24.553Z,2.70
2019-05-09T11:15:03.748Z,2.97
2019-05-09T11:19:58.754Z,2.93
2019-05-09T11:24:51.302Z,2.60
2019-05-09T11:29:46.426Z,2.13
2019-05-09T11:34:37.960Z,2.60
2019-05-09T11:39:36.478Z,2.13
2019-05-09T11:44:24.647Z,2.13
2019-05-09T11:49:18.193Z,2.20
2019-05-09T11:54:11.452Z,2.30
2019-05-09T11:59:04.787Z,2.20
2019-05-09T12:03:58.518Z,1.87
2019-05-09T12:08:51.925Z,2.60
2019-05-09T12:13:45.295Z,2.50
2019-05-09T12:18:38.647Z,2.47
2019-05-09T12:23:32.070Z,2.73
2019-05-09T12:28:25.390Z,2.30
2019-05-09T12:33:18.893Z,2.80
2019-05-09T12:38:12.182Z,2.43
2019-05-09T12:43:05.579Z,2.50
2019-05-09T12:48:10.902Z,2.23
2019-05-09T12:52:52.304Z,1.97
2019-05-09T12:57:45.664Z,2.03
2019-05-09T13:02:39.063Z,2.20
2019-05-09T13:07:32.395Z,2.00
2019-05-09T13:12:28.927Z,1.60
2019-05-09T13:17:27.228Z,2.50
2019-05-09T13:22:20.270Z,2.20
2019-05-09T13:27:13.690Z,2.47
2019-05-09T13:32:08.819Z,1.53
2019-05-09T13:37:00.398Z,2.07
2019-05-09T13:41:53.837Z,1.80
2019-05-09T13:46:48.797Z,1.70
2019-05-09T13:51:49.425Z,1.80
2019-05-09T13:56:33.905Z,1.93
2019-05-09T14:01:27.298Z,1.50
2019-05-09T14:06:20.641Z,1.60
2019-05-09T14:11:14.405Z,1.97
2019-05-09T14:16:18.986Z,2.07
2019-05-09T14:21:01.466Z,2.20
2019-05-09T14:25:54.841Z,1.97
2019-05-09T14:30:48.510Z,1.90
2019-05-09T14:35:42.006Z,2.40
2019-05-09T14:40:37.546Z,1.53
2019-05-09T14:45:29.155Z,2.00
2019-05-09T14:50:22.491Z,1.60
2019-05-09T14:55:17.896Z,1.70
2019-05-09T15:00:09.279Z,2.30
2019-05-09T15:05:03.862Z,1.70
2019-05-09T15:09:57.447Z,1.63
2019-05-09T15:14:50.149Z,1.33
2019-05-09T15:19:56.545Z,1.90
2019-05-09T15:24:38.816Z,1.77
2019-05-09T15:29:30.462Z,1.60
2019-05-09T15:34:23.968Z,1.93
2019-05-09T15:39:18.360Z,2.07
2019-05-09T15:44:10.737Z,1.77
2019-05-09T15:49:04.054Z,1.83
2019-05-09T15:53:57.879Z,1.90
2019-05-09T15:58:51.002Z,1.57
2019-05-09T16:03:44.534Z,1.90
2019-05-09T16:08:38.229Z,1.67
2019-05-09T16:13:31.276Z,2.20
2019-05-09T16:18:24.627Z,1.50
2019-05-09T16:23:18.403Z,1.70
2019-05-09T16:28:11.277Z,1.63
2019-05-09T16:33:04.634Z,1.90
2019-05-09T16:38:05.950Z,1.27
2019-05-09T16:42:51.320Z,2.03
2019-05-09T16:47:44.888Z,1.70
2019-05-09T16:52:42.991Z,1.60
2019-05-09T16:57:32.066Z,1.93
2019-05-09T17:02:25.260Z,1.87
2019-05-09T17:07:18.662Z,2.27
2019-05-09T17:12:12.167Z,1.93
2019-05-09T17:17:08.171Z,1.97
2019-05-09T17:22:18.307Z,1.87
2019-05-09T17:27:11.675Z,1.90
2019-05-09T17:32:07.579Z,1.60
2019-05-09T17:36:58.351Z,1.77
2019-05-09T17:41:51.802Z,2.53
2019-05-09T17:46:47.789Z,1.87
2019-05-09T17:51:38.853Z,2.30
2019-05-09T17:56:32.189Z,1.67
2019-05-09T18:01:27.599Z,1.63
2019-05-09T18:06:19.303Z,1.63
2019-05-09T18:11:13.067Z,1.50
2019-05-09T18:16:05.712Z,2.07
2019-05-09T18:20:59.083Z,1.97
2019-05-09T18:25:52.403Z,1.77
2019-05-09T18:30:47.815Z,1.97
2019-05-09T18:35:39.863Z,1.90
2019-05-09T18:40:33.190Z,2.10
2019-05-09T18:45:28.289Z,1.97
2019-05-09T18:50:19.898Z,2.00
2019-05-09T18:55:13.233Z,1.90
2019-05-09T19:00:06.727Z,1.83
2019-05-09T19:05:00.056Z,1.87
2019-05-09T19:09:53.413Z,1.97
2019-05-09T19:14:47.070Z,2.20
2019-05-09T19:19:45.305Z,2.10
2019-05-09T19:24:38.905Z,1.90
2019-05-09T19:29:32.218Z,2.23
2019-05-09T19:34:25.639Z,1.87
2019-05-09T19:39:18.942Z,1.60
2019-05-09T19:44:12.403Z,1.77
2019-05-09T19:49:05.717Z,2.00
2019-05-09T19:53:59.011Z,1.70
2019-05-09T19:58:52.322Z,2.97
2019-05-09T20:03:46.110Z,2.30
2019-05-09T20:08:40.044Z,2.33
2019-05-09T20:13:38.540Z,2.50
2019-05-09T20:18:33.660Z,2.77
2019-05-09T20:23:27.004Z,3.20
2019-05-09T20:28:20.294Z,2.90
2019-05-09T20:33:13.877Z,3.30
2019-05-09T20:38:07.202Z,2.90
2019-05-09T20:43:00.711Z,2.77
2019-05-09T20:47:54.050Z,3.00
2019-05-09T20:52:47.695Z,3.47
2019-05-09T20:57:41.006Z,2.97
2019-05-09T21:02:34.479Z,2.97
2019-05-09T21:07:27.882Z,3.30
2019-05-09T21:12:21.276Z,2.63
2019-05-09T21:17:14.606Z,2.63
2019-05-09T21:22:07.953Z,3.40
2019-05-09T21:27:01.315Z,2.77
2019-05-09T21:31:54.733Z,2.77
2019-05-09T21:36:48.359Z,2.73
2019-05-09T21:41:41.680Z,2.27
2019-05-09T21:46:35.191Z,2.40
2019-05-09T21:51:28.535Z,2.17
2019-05-09T21:56:21.866Z,2.30
2019-05-09T22:01:15.336Z,2.57
2019-05-09T22:06:08.715Z,2.23
2019-05-09T22:11:02.360Z,1.93
2019-05-09T22:15:55.704Z,2.33
2019-05-09T22:20:49.338Z,2.40
2019-05-09T22:25:42.873Z,2.03
2019-05-09T22:30:36.509Z,2.00
2019-05-09T22:35:29.837Z,2.40
2019-05-09T22:40:23.232Z,2.10
2019-05-09T22:45:16.517Z,2.27
2019-05-09T22:50:09.853Z,2.03
2019-05-09T22:55:03.571Z,2.13
2019-05-09T22:59:56.910Z,2.17
2019-05-09T23:04:50.477Z,2.70
2019-05-09T23:09:43.826Z,2.23
2019-05-09T23:14:37.240Z,2.97
2019-05-09T23:19:30.649Z,2.30
2019-05-09T23:24:28.429Z,2.63
2019-05-09T23:29:17.705Z,2.00
2019-05-09T23:34:11.037Z,1.90
2019-05-09T23:39:19.043Z,2.20
2019-05-09T23:44:12.548Z,2.10
2019-05-09T23:49:05.865Z,2.33
2019-05-09T23:53:58.583Z,1.90
2019-05-09T23:59:09.876Z,2.00
